Time;durP1;ratioP1;P1;durP2;ratioP2;P2;SDS_P1;SDS_P2;PMS_P1;PMS_P2;Temp;Humidity;BMP_temperature;BMP_pressure;BME280_temperature;BME280_humidity;BME280_pressure;Samples;Min_cycle;Max_cycle;Signal;HPM_P1;HPM_P2
2023/05/31 00:00:09;;;;;;;12.17;3.23;;;14.90;97.70;;;15.67;93.17;98649.66;5047605;28;20488;-82
2023/05/31 00:02:38;;;;;;;15.30;3.10;;;14.80;97.60;;;15.64;93.32;98646.63;5046080;28;20473;-82
2023/05/31 00:05:12;;;;;;;6.70;2.93;;;14.80;97.40;;;15.59;93.75;98645.41;5024430;28;20551;-82
2023/05/31 00:07:41;;;;;;;4.10;2.30;;;14.70;97.70;;;15.62;93.79;98641.53;5047718;28;20469;-82
2023/05/31 00:10:11;;;;;;;5.40;2.47;;;14.80;97.60;;;15.58;93.68;98641.13;5045900;28;20537;-82
2023/05/31 00:12:41;;;;;;;10.10;3.10;;;14.70;97.60;;;15.53;93.64;98645.41;5046343;28;20467;-82
2023/05/31 00:15:10;;;;;;;11.63;3.07;;;14.70;97.60;;;15.49;93.66;98637.09;5046596;28;20465;-83
2023/05/31 00:17:40;;;;;;;7.80;2.70;;;14.60;97.60;;;15.45;93.75;98641.13;5046797;28;20472;-82
2023/05/31 00:20:12;;;;;;;6.33;2.47;;;14.60;97.70;;;15.42;94.22;98644.16;5044693;28;20461;-82
2023/05/31 00:22:40;;;;;;;4.43;2.97;;;14.60;97.80;;;15.41;94.49;98645.16;5043444;28;20553;-83
2023/05/31 00:25:11;;;;;;;4.13;2.70;;;14.50;98.00;;;15.37;94.81;98643.97;5045436;28;20967;-83
2023/05/31 00:27:40;;;;;;;3.80;2.23;;;14.50;97.70;;;15.29;95.19;98633.63;5044401;28;20952;-83
2023/05/31 00:30:13;;;;;;;8.83;3.30;;;14.50;98.00;;;15.25;94.62;98629.75;5043779;28;20469;-83
2023/05/31 00:32:41;;;;;;;6.13;2.57;;;14.40;97.60;;;15.21;95.26;98631.19;5047821;28;20469;-83
2023/05/31 00:35:11;;;;;;;6.17;2.70;;;14.40;97.70;;;15.18;94.95;98638.66;5047659;28;20471;-82
2023/05/31 00:37:40;;;;;;;6.47;2.33;;;14.40;97.90;;;15.12;95.01;98635.03;5043172;28;20464;-82
2023/05/31 00:40:12;;;;;;;18.80;2.63;;;14.30;97.70;;;15.09;95.87;98632.81;5045258;28;20495;-82
2023/05/31 00:42:42;;;;;;;9.90;2.67;;;14.20;98.00;;;15.07;95.59;98643.53;5046324;28;20461;-82
2023/05/31 00:45:12;;;;;;;7.23;2.47;;;14.20;98.10;;;15.04;96.36;98635.22;5048340;28;20481;-82
2023/05/31 00:47:42;;;;;;;4.13;2.30;;;14.20;98.30;;;15.03;95.79;98638.84;5047997;28;20488;-82
2023/05/31 00:50:12;;;;;;;9.00;2.60;;;14.20;97.90;;;14.97;96.36;98639.66;5047728;28;20571;-82
2023/05/31 00:52:41;;;;;;;5.73;2.43;;;14.10;98.00;;;14.90;97.20;98649.38;5048548;28;20476;-83
2023/05/31 00:55:12;;;;;;;5.53;2.43;;;14.10;98.20;;;14.86;97.91;98638.41;5045336;28;20599;-82
2023/05/31 00:57:42;;;;;;;4.63;2.40;;;14.00;98.50;;;14.84;97.65;98639.63;5045164;28;20472;-82
2023/05/31 01:00:14;;;;;;;8.60;2.60;;;14.00;98.30;;;14.81;97.57;98638.22;5045837;28;20524;-83
2023/05/31 01:02:43;;;;;;;3.77;2.70;;;14.00;98.20;;;14.78;97.94;98632.53;5045258;28;21014;-82
2023/05/31 01:05:13;;;;;;;6.83;2.60;;;13.90;98.30;;;14.77;98.23;98630.91;5045235;28;21136;-83
2023/05/31 01:07:42;;;;;;;5.77;2.60;;;13.90;98.60;;;14.77;98.45;98634.38;5045904;28;20981;-81
2023/05/31 01:10:14;;;;;;;6.63;2.07;;;13.90;98.70;;;14.75;98.31;98627.69;5045459;28;20472;-82
2023/05/31 01:13:06;;;;;;;6.80;2.30;;;13.90;98.50;;;14.68;98.85;98626.84;5043615;28;20493;-82
2023/05/31 01:15:45;;;;;;;6.47;2.60;;;13.90;98.40;;;14.59;99.99;98634.09;5043566;28;20839;-83
2023/05/31 01:18:24;;;;;;;7.00;2.60;;;13.80;98.50;;;14.50;100.00;98636.13;5049399;28;20464;-82
2023/05/31 01:20:58;;;;;;;6.13;2.70;;;13.80;98.50;;;14.46;100.00;98624.34;5045939;28;20461;-82
2023/05/31 01:24:01;;;;;;;12.27;3.33;;;13.70;98.60;;;14.41;100.00;98634.66;5047403;28;20496;-82
2023/05/31 01:26:38;;;;;;;8.37;2.43;;;13.60;99.00;;;14.43;100.00;98624.75;5042677;28;20703;-82
2023/05/31 01:29:13;;;;;;;8.73;2.40;;;13.60;98.90;;;14.40;100.00;98629.59;5044564;28;20461;-82
2023/05/31 01:31:42;;;;;;;6.57;2.37;;;13.60;99.00;;;14.37;100.00;98620.25;5040957;28;20970;-82
2023/05/31 01:34:14;;;;;;;12.33;2.90;;;13.50;98.90;;;14.34;100.00;98625.09;5046010;28;20492;-82
2023/05/31 01:36:43;;;;;;;4.80;2.23;;;13.50;98.90;;;14.29;100.00;98628.31;5044125;28;20556;-83
2023/05/31 01:39:14;;;;;;;7.53;2.50;;;13.50;99.10;;;14.26;100.00;98633.97;5045703;28;20497;-83
2023/05/31 01:41:49;;;;;;;6.20;2.10;;;13.50;99.30;;;14.23;100.00;98634.31;5043547;28;20519;-82
2023/05/31 01:44:20;;;;;;;5.10;2.43;;;13.40;98.90;;;14.17;100.00;98629.84;5045719;28;20464;-82
2023/05/31 01:46:51;;;;;;;4.77;2.23;;;13.40;99.30;;;14.13;100.00;98633.88;5043929;28;20459;-83
2023/05/31 01:49:20;;;;;;;10.07;3.13;;;13.30;99.30;;;14.13;100.00;98630.47;5042937;28;20455;-83
2023/05/31 01:51:51;;;;;;;5.13;2.37;;;13.30;99.20;;;14.13;100.00;98631.25;5043451;28;20759;-83
2023/05/31 01:54:21;;;;;;;5.70;2.57;;;13.30;99.50;;;14.15;100.00;98626.63;5045224;28;20884;-82
2023/05/31 01:56:53;;;;;;;20.83;2.90;;;13.20;99.50;;;14.13;100.00;98628.63;5044180;28;20515;-82
2023/05/31 01:59:22;;;;;;;7.83;2.70;;;13.20;99.20;;;14.10;100.00;98629.00;5042723;28;20987;-82
2023/05/31 02:01:51;;;;;;;7.33;2.50;;;13.20;99.60;;;14.07;100.00;98629.41;5043821;28;20475;-83
2023/05/31 02:04:21;;;;;;;5.67;2.10;;;13.20;99.40;;;14.03;100.00;98628.16;5042285;28;20461;-82
2023/05/31 02:06:51;;;;;;;9.77;3.03;;;13.20;99.30;;;13.99;100.00;98627.75;5044235;28;20472;-82
2023/05/31 02:09:21;;;;;;;6.87;2.53;;;13.10;99.40;;;13.95;100.00;98633.59;5043983;28;20548;-83
2023/05/31 02:11:51;;;;;;;7.40;2.50;;;13.10;99.30;;;13.89;100.00;98632.53;5048340;28;20461;-82
2023/05/31 02:14:20;;;;;;;3.80;2.07;;;13.10;99.30;;;13.86;100.00;98634.75;5046081;28;20940;-82
2023/05/31 02:16:49;;;;;;;4.90;2.27;;;13.10;99.60;;;13.86;100.00;98626.84;5047159;28;20531;-81
2023/05/31 02:19:19;;;;;;;5.90;2.60;;;13.00;99.90;;;13.84;100.00;98634.94;5044979;28;20484;-82
2023/05/31 02:21:47;;;;;;;4.70;1.97;;;13.00;99.60;;;13.83;100.00;98637.75;5046440;28;20469;-82
2023/05/31 02:24:16;;;;;;;5.67;2.37;;;12.90;99.80;;;13.81;100.00;98639.78;5046840;28;20458;-82
2023/05/31 02:26:45;;;;;;;15.53;2.33;;;12.90;99.60;;;13.76;100.00;98639.53;5046699;28;20487;-82
2023/05/31 02:29:16;;;;;;;11.40;2.93;;;12.90;99.50;;;13.72;100.00;98633.03;5044450;28;20446;-83
2023/05/31 02:31:45;;;;;;;9.67;2.60;;;12.90;99.70;;;13.67;100.00;98638.06;5027490;28;20469;-82
2023/05/31 02:34:15;;;;;;;5.93;2.23;;;12.90;99.70;;;13.67;100.00;98638.06;5046629;28;20497;-83
2023/05/31 02:36:45;;;;;;;6.63;2.67;;;12.80;99.90;;;13.64;100.00;98638.47;5045039;28;20480;-82
2023/05/31 02:39:13;;;;;;;8.00;2.43;;;12.80;99.80;;;13.60;100.00;98644.09;5045318;28;21032;-82
2023/05/31 02:41:42;;;;;;;5.03;2.70;;;12.80;99.80;;;13.57;100.00;98639.19;5046359;28;20469;-82
2023/05/31 02:44:11;;;;;;;4.73;2.30;;;12.80;99.90;;;13.51;100.00;98644.41;5046634;28;20464;-82
2023/05/31 02:46:43;;;;;;;8.03;2.40;;;12.80;99.90;;;13.43;100.00;98642.72;5045662;28;20511;-83
2023/05/31 02:49:12;;;;;;;7.60;2.43;;;12.70;99.90;;;13.40;100.00;98643.13;5044638;28;20475;-83
2023/05/31 02:51:41;;;;;;;7.50;2.80;;;12.60;99.90;;;13.39;100.00;98654.66;5048049;28;20490;-82
2023/05/31 02:54:09;;;;;;;8.77;3.00;;;12.60;99.90;;;13.37;100.00;98643.50;5044563;28;20914;-82
2023/05/31 02:56:38;;;;;;;7.23;2.40;;;12.60;99.90;;;13.37;100.00;98648.75;5046628;28;21006;-82
2023/05/31 02:59:08;;;;;;;8.07;2.57;;;12.50;99.90;;;13.35;100.00;98642.88;5045915;28;20481;-83
2023/05/31 03:01:37;;;;;;;6.73;2.67;;;12.50;99.90;;;13.33;100.00;98650.13;5041594;28;21024;-81
2023/05/31 03:04:07;;;;;;;4.27;2.77;;;12.50;99.90;;;13.32;100.00;98645.91;5042813;28;20474;-82
2023/05/31 03:06:35;;;;;;;6.77;2.80;;;12.50;99.90;;;13.30;100.00;98653.13;5042905;28;20457;-82
2023/05/31 03:09:05;;;;;;;9.17;2.00;;;12.50;99.90;;;13.27;100.00;98645.63;5042946;28;20567;-83
2023/05/31 03:11:35;;;;;;;5.13;2.00;;;12.40;99.90;;;13.25;100.00;98649.47;5043037;28;20546;-83
2023/05/31 03:14:03;;;;;;;6.27;2.30;;;12.40;99.90;;;13.22;100.00;98642.78;5045939;28;20967;-83
2023/05/31 03:16:33;;;;;;;12.90;2.50;;;12.40;99.90;;;13.20;100.00;98652.66;5048616;28;20473;-82
2023/05/31 03:19:03;;;;;;;8.10;4.23;;;12.40;99.90;;;13.15;100.00;98644.53;5045185;28;20476;-78
2023/05/31 03:21:33;;;;;;;6.60;3.27;;;12.30;99.90;;;13.14;100.00;98653.41;5043878;28;20623;-82
2023/05/31 03:24:02;;;;;;;11.17;2.73;;;12.30;99.90;;;13.10;100.00;98650.34;5045020;28;20504;-81
2023/05/31 03:26:32;;;;;;;4.30;2.43;;;12.30;99.90;;;13.09;100.00;98650.50;5044333;28;20504;-82
2023/05/31 03:29:01;;;;;;;8.43;2.80;;;12.30;99.90;;;13.04;100.00;98648.44;5030158;28;20954;-82
2023/05/31 03:31:33;;;;;;;5.00;2.40;;;12.30;99.90;;;12.99;100.00;98644.75;5046117;28;20472;-83
2023/05/31 03:34:02;;;;;;;3.30;1.90;;;12.20;99.90;;;12.96;100.00;98642.50;5047942;28;20461;-79
2023/05/31 03:36:32;;;;;;;8.20;3.63;;;12.20;99.90;;;12.92;100.00;98643.84;5046063;28;20559;-81
2023/05/31 03:39:01;;;;;;;5.77;2.47;;;12.20;99.90;;;12.94;100.00;98650.56;5048672;28;20467;-82
2023/05/31 03:41:29;;;;;;;8.37;3.17;;;12.20;99.90;;;12.98;100.00;98653.63;5047977;28;20491;-81
2023/05/31 03:43:59;;;;;;;10.73;2.80;;;12.10;99.90;;;12.99;100.00;98653.44;5047575;28;20564;-81
2023/05/31 03:46:30;;;;;;;5.57;2.60;;;12.10;99.90;;;12.98;100.00;98651.78;5050165;28;20823;-82
2023/05/31 03:48:59;;;;;;;8.20;2.20;;;12.10;99.90;;;12.97;100.00;98652.81;5048707;28;20461;-82
2023/05/31 03:51:29;;;;;;;4.60;2.40;;;12.10;99.90;;;12.92;100.00;98654.34;5049113;28;20536;-82
2023/05/31 03:54:00;;;;;;;4.70;2.00;;;12.10;99.90;;;12.88;100.00;98650.47;5048832;28;20469;-82
2023/05/31 03:56:28;;;;;;;5.73;2.50;;;12.10;99.90;;;12.88;100.00;98648.66;5047850;28;20472;-83
2023/05/31 03:58:57;;;;;;;6.47;2.83;;;12.10;99.90;;;12.87;100.00;98646.25;5048010;28;20575;-82
2023/05/31 04:01:27;;;;;;;4.93;2.60;;;12.10;99.90;;;12.88;100.00;98645.22;5047843;28;20991;-81
2023/05/31 04:03:56;;;;;;;6.00;2.50;;;12.00;99.90;;;12.88;100.00;98648.66;5048142;28;20499;-81
2023/05/31 04:06:28;;;;;;;4.53;2.30;;;12.00;99.90;;;12.88;100.00;98646.03;5029644;28;21120;-81
2023/05/31 04:08:57;;;;;;;6.67;2.60;;;12.00;99.90;;;12.89;100.00;98646.84;5046710;28;20503;-81
2023/05/31 04:11:27;;;;;;;4.83;2.57;;;12.00;99.90;;;12.88;100.00;98642.59;5046314;28;20971;-80
2023/05/31 04:13:57;;;;;;;6.90;2.43;;;12.10;99.90;;;12.88;100.00;98645.22;5047457;28;20456;-79
2023/05/31 04:16:25;;;;;;;8.17;2.90;;;12.00;99.90;;;12.88;100.00;98653.09;5046476;28;20457;-80
2023/05/31 04:18:54;;;;;;;4.70;2.37;;;12.00;99.90;;;12.90;100.00;98656.38;5049076;28;20883;-81
2023/05/31 04:21:23;;;;;;;7.97;3.03;;;12.10;99.90;;;12.90;100.00;98648.50;5047155;28;20500;-80
2023/05/31 04:23:52;;;;;;;4.43;2.30;;;12.10;99.90;;;12.88;100.00;98651.28;5048619;28;20468;-81
2023/05/31 04:26:22;;;;;;;5.60;2.57;;;12.00;99.90;;;12.89;100.00;98655.56;5048680;28;21451;-80
2023/05/31 04:28:54;;;;;;;6.43;2.60;;;12.10;99.90;;;12.90;100.00;98653.75;5048253;28;20526;-80
2023/05/31 04:31:24;;;;;;;6.97;2.80;;;12.10;99.90;;;12.90;100.00;98659.00;5046481;28;20458;-80
2023/05/31 04:34:06;;;;;;;6.10;2.60;;;12.10;99.90;;;12.91;100.00;98658.00;5047766;28;20467;-80
2023/05/31 04:36:36;;;;;;;5.17;2.57;;;12.10;99.90;;;12.94;100.00;98658.44;5046818;28;21009;-80
2023/05/31 04:39:12;;;;;;;6.13;2.90;;;12.10;99.90;;;12.97;100.00;98665.13;5043655;28;20472;-82
2023/05/31 04:41:41;;;;;;;3.30;2.20;;;12.20;99.90;;;12.99;100.00;98655.22;5046115;28;20496;-78
2023/05/31 04:44:11;;;;;;;6.87;3.23;;;12.20;99.90;;;13.00;100.00;98664.75;5045213;28;20477;-81
2023/05/31 04:46:40;;;;;;;8.57;3.00;;;12.20;99.90;;;13.00;100.00;98657.69;5043207;28;21045;-82
2023/05/31 04:49:11;;;;;;;14.87;6.70;;;12.10;99.90;;;13.03;100.00;98659.13;5043420;28;20493;-82
2023/05/31 04:51:40;;;;;;;6.20;3.10;;;12.20;99.90;;;13.05;100.00;98655.28;5044329;28;20519;-80
2023/05/31 04:54:09;;;;;;;5.40;2.80;;;12.30;99.90;;;13.11;100.00;98648.53;5046508;28;20469;-80
2023/05/31 04:56:37;;;;;;;4.43;2.70;;;12.30;99.90;;;13.15;100.00;98652.41;5048976;28;20461;-80
2023/05/31 04:59:07;;;;;;;4.93;2.57;;;12.30;99.90;;;13.21;100.00;98653.47;5047897;28;20480;-80
2023/05/31 05:01:39;;;;;;;7.47;2.87;;;12.30;99.90;;;13.25;100.00;98659.97;5045991;28;20489;-80
2023/05/31 05:04:07;;;;;;;10.43;2.90;;;12.40;99.90;;;13.29;100.00;98663.84;5047198;28;20460;-80
2023/05/31 05:06:37;;;;;;;6.00;2.67;;;12.40;99.90;;;13.31;100.00;98653.94;5045179;28;20880;-80
2023/05/31 05:09:07;;;;;;;8.30;2.60;;;12.40;99.90;;;13.36;100.00;98662.09;5045248;28;21161;-80
2023/05/31 05:11:35;;;;;;;9.70;2.93;;;12.50;99.90;;;13.38;100.00;98663.53;5043711;28;20461;-81
2023/05/31 05:14:04;;;;;;;5.93;2.90;;;12.50;99.90;;;13.43;100.00;98666.38;5044378;28;20825;-80
2023/05/31 05:16:33;;;;;;;18.43;3.07;;;12.50;99.90;;;13.48;100.00;98661.38;5042119;28;21023;-80
2023/05/31 05:19:03;;;;;;;4.70;2.80;;;12.60;99.90;;;13.54;100.00;98660.59;5043137;28;20486;-80
2023/05/31 05:21:32;;;;;;;4.70;2.50;;;12.70;99.90;;;13.58;100.00;98656.59;5026338;28;20484;-80
2023/05/31 05:24:01;;;;;;;5.20;2.40;;;12.70;99.90;;;13.64;100.00;98656.84;5041681;28;20872;-81
2023/05/31 05:26:30;;;;;;;5.30;3.00;;;12.70;99.90;;;13.67;100.00;98659.91;5044433;28;20497;-80
2023/05/31 05:29:00;;;;;;;6.60;2.60;;;12.80;99.90;;;13.71;100.00;98658.50;5025004;28;20472;-80
2023/05/31 05:31:32;;;;;;;5.37;2.30;;;12.80;99.90;;;13.75;100.00;98662.38;5043394;28;20475;-81
2023/05/31 05:34:02;;;;;;;12.43;3.20;;;12.90;99.90;;;13.79;100.00;98661.00;5044694;28;20474;-80
2023/05/31 05:36:31;;;;;;;6.80;2.40;;;12.90;99.90;;;13.85;100.00;98665.47;5042910;28;20473;-80
2023/05/31 05:39:03;;;;;;;9.13;3.50;;;13.00;99.90;;;13.89;100.00;98666.72;5042957;28;20830;-78
2023/05/31 05:41:33;;;;;;;11.63;5.13;;;13.00;99.90;;;13.96;100.00;98664.13;5042189;28;21003;-81
2023/05/31 05:44:02;;;;;;;12.83;3.57;;;13.00;99.90;;;14.00;100.00;98665.38;5042522;28;20465;-81
2023/05/31 05:46:33;;;;;;;10.10;3.60;;;13.20;99.90;;;14.05;100.00;98665.63;5041225;28;20485;-80
2023/05/31 05:49:03;;;;;;;9.90;2.90;;;13.20;99.90;;;14.10;100.00;98668.47;5042022;28;20510;-82
2023/05/31 05:51:32;;;;;;;9.17;3.70;;;13.20;99.90;;;14.13;100.00;98668.06;5041915;28;20461;-81
2023/05/31 05:54:01;;;;;;;6.93;3.07;;;13.20;99.90;;;14.19;100.00;98659.44;5042265;28;20531;-81
2023/05/31 05:56:30;;;;;;;7.43;2.73;;;13.30;99.90;;;14.23;100.00;98665.91;5041813;28;21435;-81
2023/05/31 05:58:59;;;;;;;15.03;3.40;;;13.30;99.90;;;14.30;100.00;98668.59;5038727;28;20481;-80
2023/05/31 06:01:28;;;;;;;6.40;2.73;;;13.40;99.90;;;14.34;100.00;98670.66;5040872;28;20497;-80
2023/05/31 06:03:57;;;;;;;5.40;2.40;;;13.50;99.90;;;14.42;100.00;98670.50;5041104;28;20461;-80
2023/05/31 06:06:27;;;;;;;9.23;2.83;;;13.50;99.90;;;14.47;100.00;98678.59;5044139;28;20473;-79
2023/05/31 06:08:55;;;;;;;10.37;2.60;;;13.60;99.90;;;14.53;100.00;98677.81;5043653;28;20464;-80
2023/05/31 06:11:25;;;;;;;9.67;2.57;;;13.70;99.90;;;14.59;100.00;98679.66;5043165;28;20507;-81
2023/05/31 06:13:57;;;;;;;12.17;3.17;;;13.70;99.90;;;14.65;100.00;98675.41;5044538;28;20551;-80
2023/05/31 06:16:26;;;;;;;3.87;2.40;;;13.80;99.90;;;14.74;100.00;98673.44;5043883;28;20457;-81
2023/05/31 06:18:55;;;;;;;11.73;2.77;;;13.90;99.90;;;14.81;100.00;98669.00;5041832;28;20469;-80
2023/05/31 06:21:24;;;;;;;9.90;3.00;;;13.90;99.90;;;14.87;100.00;98676.91;5041657;28;20799;-80
2023/05/31 06:23:53;;;;;;;5.20;2.57;;;14.00;99.90;;;14.95;100.00;98668.03;5040497;28;20480;-80
2023/05/31 06:26:22;;;;;;;6.93;2.13;;;14.00;99.90;;;15.03;100.00;98673.09;5043202;28;20945;-80
2023/05/31 06:28:52;;;;;;;6.80;2.37;;;14.10;99.90;;;15.10;100.00;98671.28;5041318;28;20966;-80
2023/05/31 06:31:20;;;;;;;12.37;2.53;;;14.20;99.90;;;15.17;100.00;98671.31;5043338;28;20468;-80
2023/05/31 06:33:50;;;;;;;9.93;2.53;;;14.30;99.90;;;15.28;100.00;98670.69;5043758;28;20504;-80
2023/05/31 06:36:18;;;;;;;8.57;2.50;;;14.50;99.90;;;15.40;98.14;98674.38;5042362;28;20466;-81
2023/05/31 06:38:48;;;;;;;10.30;2.30;;;14.70;98.90;;;15.51;95.05;98676.44;5043501;28;20678;-80
2023/05/31 06:41:18;;;;;;;6.87;2.40;;;14.80;98.30;;;15.60;93.17;98665.50;5040768;28;20465;-81
2023/05/31 06:43:48;;;;;;;22.93;2.23;;;14.90;97.90;;;15.72;92.69;98662.25;5027166;28;20466;-80
2023/05/31 06:46:17;;;;;;;5.20;2.63;;;14.90;97.90;;;15.81;93.03;98661.00;5040966;28;20473;-81
2023/05/31 06:48:45;;;;;;;4.53;2.60;;;15.10;98.20;;;15.86;92.19;98667.28;5039211;28;20488;-82
2023/05/31 06:51:22;;;;;;;3.53;2.30;;;15.10;97.90;;;15.94;90.85;98663.63;5039301;28;20472;-81
2023/05/31 06:53:51;;;;;;;4.70;2.90;;;15.20;97.70;;;16.04;90.93;98661.34;5042916;28;20462;-81
2023/05/31 06:56:21;;;;;;;5.73;3.13;;;15.30;97.50;;;16.11;90.46;98662.97;5043322;28;20488;-80
2023/05/31 06:58:50;;;;;;;9.23;2.83;;;15.40;97.50;;;16.19;88.50;98663.75;5042761;28;20496;-81
2023/05/31 07:01:19;;;;;;;5.43;2.30;;;15.40;96.90;;;16.27;88.22;98666.19;5043502;28;20461;-80
2023/05/31 07:03:50;;;;;;;3.60;2.07;;;15.50;97.00;;;16.30;86.08;98661.31;5041666;28;20464;-81
2023/05/31 07:06:22;;;;;;;6.37;2.20;;;15.60;96.50;;;16.41;85.88;98657.19;5038723;28;20463;-81
2023/05/31 07:08:52;;;;;;;9.50;2.63;;;15.70;96.50;;;16.49;84.53;98655.13;5021327;28;20480;-80
2023/05/31 07:11:25;;;;;;;12.67;1.90;;;15.80;96.10;;;16.57;83.48;98648.81;5040043;28;20472;-80
2023/05/31 07:13:59;;;;;;;5.33;2.33;;;15.90;95.80;;;16.64;81.97;98646.97;5041006;28;20472;-82
2023/05/31 07:16:28;;;;;;;5.43;2.07;;;16.00;95.50;;;16.73;80.57;98644.91;5040959;28;20553;-82
2023/05/31 07:18:57;;;;;;;4.60;2.40;;;16.00;95.10;;;16.81;79.76;98639.34;5043368;28;20457;-81
2023/05/31 07:21:26;;;;;;;6.20;1.97;;;16.10;94.90;;;16.87;79.18;98638.53;5042135;28;20530;-81
2023/05/31 07:23:56;;;;;;;3.33;1.90;;;16.20;94.80;;;16.94;78.53;98639.28;5036538;28;20515;-81
2023/05/31 07:26:26;;;;;;;25.77;14.27;;;16.20;94.60;;;16.98;76.64;98630.72;5041882;28;20503;-77
2023/05/31 07:28:54;;;;;;;4.90;2.07;;;16.30;94.10;;;17.06;77.57;98638.41;5039957;28;20457;-81
2023/05/31 07:31:24;;;;;;;3.83;2.37;;;16.40;94.50;;;17.10;77.57;98638.78;5040191;28;20496;-81
2023/05/31 07:33:52;;;;;;;9.97;2.60;;;16.40;94.60;;;17.16;77.44;98629.16;5040159;28;20546;-82
2023/05/31 07:36:24;;;;;;;8.17;2.47;;;16.40;94.50;;;17.20;77.23;98628.53;5042105;28;20464;-81
2023/05/31 07:38:53;;;;;;;9.40;2.40;;;16.50;94.40;;;17.27;77.48;98623.19;5039463;28;20473;-81
2023/05/31 07:41:22;;;;;;;8.03;2.43;;;16.60;94.50;;;17.33;75.53;98631.06;5038811;28;20468;-81
2023/05/31 07:43:54;;;;;;;6.30;2.67;;;16.70;94.00;;;17.36;76.05;98625.34;5039246;28;21040;-82
2023/05/31 07:46:24;;;;;;;9.00;2.30;;;16.70;94.10;;;17.42;76.21;98632.41;5037209;28;20461;-81
2023/05/31 07:48:54;;;;;;;6.70;1.90;;;16.70;94.40;;;17.50;74.48;98621.56;5040945;28;20469;-81
2023/05/31 07:51:23;;;;;;;5.57;2.70;;;16.90;93.80;;;17.53;74.85;98615.84;5042713;28;20489;-80
2023/05/31 07:53:52;;;;;;;7.80;2.43;;;16.80;93.90;;;17.63;74.12;98620.69;5040970;28;20456;-81
2023/05/31 07:56:20;;;;;;;6.90;2.60;;;17.00;93.70;;;17.67;71.79;98615.78;5041729;28;20465;-80
2023/05/31 07:58:51;;;;;;;7.40;2.20;;;17.00;93.10;;;17.71;72.96;98614.28;5040086;28;20480;-80
2023/05/31 08:01:20;;;;;;;4.50;1.87;;;17.00;93.60;;;17.79;71.30;98606.06;5038978;28;20476;-81
2023/05/31 08:03:50;;;;;;;6.10;2.80;;;17.20;92.90;;;17.87;70.59;98616.38;5038818;28;20499;-80
2023/05/31 08:06:19;;;;;;;4.13;2.40;;;17.30;92.90;;;17.91;70.90;98601.69;5041681;28;20473;-81
2023/05/31 08:08:48;;;;;;;10.20;3.27;;;17.20;92.80;;;17.93;69.32;98608.38;5042274;28;20477;-81
2023/05/31 08:11:16;;;;;;;2.83;1.97;;;17.20;92.60;;;18.00;68.80;98605.66;5039329;28;20491;-81
2023/05/31 08:13:45;;;;;;;4.57;2.60;;;17.40;92.50;;;18.09;70.47;98605.13;5046066;28;20472;-81
2023/05/31 08:16:15;;;;;;;5.73;2.10;;;17.40;92.90;;;18.14;68.23;98609.78;5044551;28;21228;-81
2023/05/31 08:18:43;;;;;;;4.57;2.07;;;17.50;92.20;;;18.15;67.71;98606.09;5043375;28;20457;-81
2023/05/31 08:21:14;;;;;;;5.70;1.90;;;17.50;92.10;;;18.20;67.00;98592.19;5042753;28;20842;-82
2023/05/31 08:23:43;;;;;;;4.60;2.03;;;17.60;92.10;;;18.26;67.30;98601.88;5042291;28;20919;-81
2023/05/31 08:26:12;;;;;;;9.30;2.37;;;17.50;92.10;;;18.36;67.74;98599.53;5044234;28;20469;-81
2023/05/31 08:28:41;;;;;;;6.10;2.03;;;17.70;92.30;;;18.41;66.98;98595.19;5044137;28;21078;-81
2023/05/31 08:31:10;;;;;;;8.20;2.00;;;17.70;92.00;;;18.48;65.69;98590.59;5042451;28;20489;-78
2023/05/31 08:33:55;;;;;;;5.00;2.20;;;17.90;91.80;;;18.54;64.74;98587.09;5043829;28;20981;-80
2023/05/31 08:36:25;;;;;;;4.10;2.23;;;17.90;91.40;;;18.65;65.07;98579.41;5046059;28;21036;-81
2023/05/31 08:38:53;;;;;;;2.53;2.03;;;18.00;91.40;;;18.70;64.71;98584.84;5046438;28;20466;-81
2023/05/31 08:41:25;;;;;;;5.60;2.17;;;18.00;91.40;;;18.74;64.33;98583.38;5046504;28;21464;-81
2023/05/31 08:43:55;;;;;;;6.90;2.50;;;18.10;91.40;;;18.89;62.95;98583.72;5045441;28;20497;-81
2023/05/31 08:46:26;;;;;;;3.30;2.00;;;18.40;90.80;;;19.02;61.98;98572.94;5046896;28;20464;-81
2023/05/31 08:49:06;;;;;;;4.83;2.13;;;18.50;90.50;;;19.13;61.60;98572.13;4996882;28;20500;-80
2023/05/31 08:51:38;;;;;;;3.77;2.10;;;18.60;90.50;;;19.20;59.95;98564.88;5044947;28;21164;-81
2023/05/31 08:54:09;;;;;;;3.53;1.97;;;18.70;90.00;;;19.26;59.18;98577.25;5044313;28;20468;-81
2023/05/31 08:56:40;;;;;;;2.60;1.83;;;18.60;89.40;;;19.28;58.33;98580.47;5042229;28;20919;-79
2023/05/31 08:59:12;;;;;;;7.10;2.40;;;18.70;89.10;;;19.30;58.36;98575.72;5044198;28;20550;-83
2023/05/31 09:01:43;;;;;;;4.13;1.90;;;18.70;89.00;;;19.34;57.88;98570.78;5041457;28;20543;-84
2023/05/31 09:04:15;;;;;;;6.70;1.47;;;18.70;88.70;;;19.41;56.68;98572.31;5044358;28;20512;-84
2023/05/31 09:06:45;;;;;;;7.87;3.70;;;18.80;87.80;;;19.46;56.12;98577.75;5042979;28;20544;-85
2023/05/31 09:09:15;;;;;;;3.13;2.00;;;18.80;87.30;;;19.48;55.98;98566.88;5042192;28;20476;-84
2023/05/31 09:11:45;;;;;;;4.17;2.10;;;18.90;87.10;;;19.53;56.05;98561.72;5043195;28;20501;-82
2023/05/31 09:14:13;;;;;;;4.87;2.40;;;18.90;87.20;;;19.61;56.76;98574.59;5045187;28;20856;-82
2023/05/31 09:16:42;;;;;;;4.17;2.20;;;19.00;88.30;;;19.70;56.21;98578.53;5044908;28;20464;-81
2023/05/31 09:19:11;;;;;;;9.47;2.07;;;19.10;87.70;;;19.74;56.29;98574.38;5043646;28;20854;-81
2023/05/31 09:21:43;;;;;;;6.80;2.50;;;19.10;87.90;;;19.74;55.91;98570.91;5044802;28;20556;-82
2023/05/31 09:24:16;;;;;;;7.73;2.50;;;19.10;87.40;;;19.76;55.67;98560.88;5042768;28;20496;-82
2023/05/31 09:26:49;;;;;;;8.53;2.87;;;19.10;87.30;;;19.75;55.83;98551.31;5042996;28;20473;-81
2023/05/31 09:29:19;;;;;;;6.23;2.37;;;19.10;87.80;;;19.80;56.30;98554.88;5043621;28;20468;-82
2023/05/31 09:31:49;;;;;;;4.97;2.40;;;19.10;88.20;;;19.75;56.19;98557.41;5042284;28;21018;-81
2023/05/31 09:34:26;;;;;;;3.53;2.00;;;19.00;88.20;;;19.81;54.66;98564.47;5044588;28;20480;-81
2023/05/31 09:37:00;;;;;;;6.70;2.30;;;19.10;86.80;;;19.92;53.05;98560.94;5042487;28;20469;-82
2023/05/31 09:39:30;;;;;;;8.40;2.33;;;19.30;85.10;;;19.91;53.16;98556.69;5042353;28;20998;-81
2023/05/31 09:41:59;;;;;;;11.40;2.93;;;19.20;85.40;;;19.92;53.31;98560.16;5040642;28;20477;-82
2023/05/31 09:44:28;;;;;;;2.60;1.93;;;19.20;85.70;;;19.97;54.29;98557.59;5042817;28;20497;-81
2023/05/31 09:47:07;;;;;;;7.23;2.47;;;19.30;86.40;;;20.03;54.06;98549.50;5042990;28;20468;-81
2023/05/31 09:49:36;;;;;;;6.23;2.33;;;19.30;86.90;;;20.01;53.48;98550.78;5041661;28;20464;-81
2023/05/31 09:52:12;;;;;;;7.43;2.53;;;19.30;85.80;;;20.09;53.49;98548.59;5042118;28;20464;-81
2023/05/31 09:54:42;;;;;;;4.17;2.00;;;19.40;85.70;;;20.18;52.92;98545.53;5044635;28;20460;-81
2023/05/31 09:57:31;;;;;;;12.67;2.87;;;19.50;85.20;;;20.23;52.66;98543.81;5043137;28;20524;-81
2023/05/31 10:00:01;;;;;;;8.17;2.77;;;19.50;85.10;;;20.28;52.59;98546.56;5041394;28;20476;-81
2023/05/31 10:02:31;;;;;;;3.70;1.83;;;19.60;85.00;;;20.32;52.71;98553.03;5042138;28;20609;-81
2023/05/31 10:05:00;;;;;;;4.37;2.23;;;19.70;85.20;;;20.36;52.16;98548.03;5041366;28;20496;-80
2023/05/31 10:07:31;;;;;;;5.90;2.40;;;19.70;85.00;;;20.44;51.61;98555.66;5043603;28;20963;-81
2023/05/31 10:09:59;;;;;;;6.93;2.50;;;19.90;84.30;;;20.48;51.04;98548.78;5044706;28;20465;-81
2023/05/31 10:12:31;;;;;;;7.13;2.47;;;19.80;83.60;;;20.47;50.85;98548.00;5043311;28;20469;-81
2023/05/31 10:15:08;;;;;;;3.30;2.30;;;19.80;83.30;;;20.59;50.91;98546.09;5043778;28;20972;-81
2023/05/31 10:17:46;;;;;;;7.97;2.73;;;19.90;83.60;;;20.65;48.80;98551.50;5042038;28;20472;-81
2023/05/31 10:20:20;;;;;;;4.53;2.80;;;20.10;81.80;;;20.64;49.26;98539.25;5042806;28;20466;-81
2023/05/31 10:22:56;;;;;;;5.70;2.17;;;20.00;81.90;;;20.62;49.52;98541.34;5039787;28;20465;-81
2023/05/31 10:25:32;;;;;;;6.33;2.20;;;20.00;82.50;;;20.65;49.66;98535.56;5040889;28;20480;-81
2023/05/31 10:28:09;;;;;;;9.40;3.10;;;20.00;82.80;;;20.63;49.71;98533.13;5041981;28;20971;-81